createdAt,value
2019-03-25T00:00:45.006Z,10.36
2019-03-25T00:03:14.443Z,10.30
2019-03-25T00:05:43.909Z,10.28
2019-03-25T00:08:13.381Z,10.26
2019-03-25T00:10:42.788Z,10.26
2019-03-25T00:13:12.574Z,10.25
2019-03-25T00:15:41.990Z,10.21
2019-03-25T00:18:11.434Z,10.19
2019-03-25T00:20:40.885Z,10.15
2019-03-25T00:23:10.327Z,10.13
2019-03-25T00:25:39.786Z,10.11
2019-03-25T00:28:09.221Z,10.10
2019-03-25T00:30:38.670Z,10.14
2019-03-25T00:33:08.113Z,10.11
2019-03-25T00:35:37.568Z,10.09
2019-03-25T00:38:07.011Z,10.08
2019-03-25T00:40:36.464Z,10.03
2019-03-25T00:43:05.906Z,10.06
2019-03-25T00:45:35.352Z,10.01
2019-03-25T00:48:04.790Z,10.02
2019-03-25T00:50:34.318Z,10.03
2019-03-25T00:53:03.754Z,9.95
2019-03-25T00:55:33.196Z,9.98
2019-03-25T00:58:02.633Z,9.88
2019-03-25T01:00:32.346Z,9.84
2019-03-25T01:03:01.785Z,9.79
2019-03-25T01:05:31.290Z,9.77
2019-03-25T01:08:00.718Z,9.78
2019-03-25T01:10:30.838Z,9.76
2019-03-25T01:13:00.270Z,9.77
2019-03-25T01:15:29.998Z,9.74
2019-03-25T01:17:59.430Z,9.71
2019-03-25T01:20:28.954Z,9.72
2019-03-25T01:22:58.384Z,9.72
2019-03-25T01:25:27.835Z,9.79
2019-03-25T01:27:57.266Z,9.75
2019-03-25T01:30:26.761Z,9.72
2019-03-25T01:32:56.196Z,9.71
2019-03-25T01:35:25.630Z,9.64
2019-03-25T01:37:55.066Z,9.60
2019-03-25T01:40:24.516Z,9.57
2019-03-25T01:42:53.951Z,9.53
2019-03-25T01:45:23.394Z,9.52
2019-03-25T01:47:52.832Z,9.53
2019-03-25T01:50:22.262Z,9.47
2019-03-25T01:52:51.711Z,9.42
2019-03-25T01:55:21.139Z,9.40
2019-03-25T01:57:50.582Z,9.41
2019-03-25T02:00:20.382Z,9.36
2019-03-25T02:02:49.898Z,9.33
2019-03-25T02:05:19.621Z,9.27
2019-03-25T02:07:49.055Z,9.28
2019-03-25T02:10:19.047Z,9.30
2019-03-25T02:12:48.481Z,9.28
2019-03-25T02:15:17.903Z,9.26
2019-03-25T02:17:47.343Z,9.23
2019-03-25T02:20:25.932Z,9.26
2019-03-25T02:22:48.064Z,9.23
2019-03-25T02:25:25.214Z,9.24
2019-03-25T02:27:48.722Z,9.18
2019-03-25T02:30:18.333Z,9.10
2019-03-25T02:32:47.767Z,9.05
2019-03-25T02:35:17.206Z,9.07
2019-03-25T02:37:46.635Z,9.02
2019-03-25T02:40:16.073Z,8.95
2019-03-25T02:42:45.517Z,8.89
2019-03-25T02:45:14.950Z,8.92
2019-03-25T02:47:44.397Z,8.88
2019-03-25T02:50:14.451Z,8.94
2019-03-25T02:52:43.893Z,8.93
2019-03-25T02:55:15.112Z,8.87
2019-03-25T02:57:44.562Z,8.81
2019-03-25T03:00:17.238Z,8.81
2019-03-25T03:02:47.075Z,8.75
2019-03-25T03:05:18.046Z,8.81
2019-03-25T03:07:47.492Z,8.80
2019-03-25T03:10:16.981Z,8.80
2019-03-25T03:12:46.424Z,8.70
2019-03-25T03:15:15.854Z,8.72
2019-03-25T03:17:45.552Z,8.70
2019-03-25T03:20:14.981Z,8.69
2019-03-25T03:22:44.424Z,8.66
2019-03-25T03:25:14.178Z,8.66
2019-03-25T03:27:43.618Z,8.58
2019-03-25T03:30:13.188Z,8.61
2019-03-25T03:32:42.639Z,8.55
2019-03-25T03:35:12.149Z,8.53
2019-03-25T03:37:41.578Z,8.51
2019-03-25T03:40:11.150Z,8.46
2019-03-25T03:42:40.653Z,8.46
2019-03-25T03:45:10.485Z,8.43
2019-03-25T03:47:40.247Z,8.39
2019-03-25T03:50:14.118Z,8.34
2019-03-25T03:52:43.701Z,8.39
2019-03-25T03:55:15.657Z,8.32
2019-03-25T03:57:45.002Z,8.19
2019-03-25T04:00:28.199Z,8.15
2019-03-25T04:02:57.639Z,8.16
2019-03-25T04:05:27.082Z,8.13
2019-03-25T04:07:56.584Z,8.12
2019-03-25T04:10:26.072Z,8.09
2019-03-25T04:12:55.517Z,8.08
2019-03-25T04:15:32.171Z,8.07
2019-03-25T04:18:02.080Z,8.08
2019-03-25T04:20:31.858Z,8.08
2019-03-25T04:23:01.294Z,8.02
2019-03-25T04:25:30.716Z,8.01
2019-03-25T04:28:00.155Z,7.99
2019-03-25T04:30:29.657Z,7.98
2019-03-25T04:32:59.168Z,8.02
2019-03-25T04:35:28.599Z,7.97
2019-03-25T04:37:58.059Z,7.94
2019-03-25T04:40:27.468Z,7.94
2019-03-25T04:42:56.913Z,7.85
2019-03-25T04:45:26.344Z,7.83
2019-03-25T04:47:55.790Z,7.77
2019-03-25T04:50:25.233Z,7.72
2019-03-25T04:52:54.669Z,7.69
2019-03-25T04:55:24.473Z,7.71
2019-03-25T04:57:53.906Z,7.68
2019-03-25T05:00:37.050Z,7.70
2019-03-25T05:03:06.722Z,7.59
2019-03-25T05:05:36.424Z,7.53
2019-03-25T05:08:05.973Z,7.49
2019-03-25T05:10:35.395Z,7.49
2019-03-25T05:13:04.838Z,7.41
2019-03-25T05:15:34.268Z,7.34
2019-03-25T05:18:03.712Z,7.25
2019-03-25T05:20:33.139Z,7.20
2019-03-25T05:23:02.868Z,7.22
2019-03-25T05:25:32.298Z,7.17
2019-03-25T05:28:01.734Z,7.19
2019-03-25T05:30:31.167Z,7.19
2019-03-25T05:33:00.605Z,7.17
2019-03-25T05:35:30.042Z,7.14
2019-03-25T05:37:59.477Z,7.11
2019-03-25T05:40:28.901Z,7.13
2019-03-25T05:42:58.713Z,7.09
2019-03-25T05:45:28.141Z,7.07
2019-03-25T05:47:57.586Z,7.07
2019-03-25T05:50:27.012Z,7.01
2019-03-25T05:52:56.450Z,7.07
2019-03-25T05:55:25.878Z,7.04
2019-03-25T05:57:55.325Z,7.04
2019-03-25T06:00:26.384Z,7.10
2019-03-25T06:02:55.813Z,7.11
2019-03-25T06:05:25.240Z,7.09
2019-03-25T06:07:54.683Z,7.06
2019-03-25T06:10:24.114Z,7.04
2019-03-25T06:12:53.549Z,7.09
2019-03-25T06:15:22.974Z,7.08
2019-03-25T06:17:52.406Z,7.06
2019-03-25T06:20:21.852Z,7.10
2019-03-25T06:22:51.429Z,7.15
2019-03-25T06:25:20.901Z,7.14
2019-03-25T06:27:50.297Z,7.19
2019-03-25T06:30:20.222Z,7.16
2019-03-25T06:32:49.641Z,7.14
2019-03-25T06:35:19.090Z,7.22
2019-03-25T06:37:48.510Z,7.27
2019-03-25T06:40:18.153Z,7.32
2019-03-25T06:42:47.590Z,7.29
2019-03-25T06:45:17.614Z,7.38
2019-03-25T06:47:47.053Z,7.40
2019-03-25T06:50:16.558Z,7.39
2019-03-25T06:52:45.980Z,7.35
2019-03-25T06:55:15.417Z,7.43
2019-03-25T06:57:44.852Z,7.48
2019-03-25T07:00:14.434Z,7.54
2019-03-25T07:02:43.869Z,7.53
2019-03-25T07:05:13.756Z,7.61
2019-03-25T07:07:43.174Z,7.63
2019-03-25T07:10:12.871Z,7.67
2019-03-25T07:12:42.282Z,7.74
2019-03-25T07:15:12.061Z,7.81
2019-03-25T07:17:41.487Z,7.86
2019-03-25T07:20:12.466Z,7.84
2019-03-25T07:22:41.903Z,7.85
2019-03-25T07:25:11.337Z,7.87
2019-03-25T07:27:40.771Z,7.98
2019-03-25T07:30:11.591Z,7.98
2019-03-25T07:32:41.114Z,8.06
2019-03-25T07:35:10.749Z,8.13
2019-03-25T07:37:40.188Z,8.16
2019-03-25T07:40:11.538Z,8.17
2019-03-25T07:42:42.918Z,8.22
2019-03-25T07:45:32.993Z,8.28
2019-03-25T07:48:04.178Z,8.32
2019-03-25T07:50:33.746Z,8.31
2019-03-25T07:53:03.188Z,8.32
2019-03-25T07:55:32.633Z,8.42
2019-03-25T07:58:02.067Z,8.39
2019-03-25T08:00:31.519Z,8.43
2019-03-25T08:03:01.098Z,8.46
2019-03-25T08:05:30.557Z,8.49
2019-03-25T08:08:00.020Z,8.57
2019-03-25T08:10:34.955Z,8.57
2019-03-25T08:13:04.703Z,8.60
2019-03-25T08:15:34.415Z,8.58
2019-03-25T08:18:04.845Z,8.52
2019-03-25T08:20:34.281Z,8.58
2019-03-25T08:23:03.786Z,8.62
2019-03-25T08:25:33.235Z,8.74
2019-03-25T08:28:02.806Z,8.77
2019-03-25T08:30:32.329Z,8.71
2019-03-25T08:33:01.756Z,8.72
2019-03-25T08:35:31.199Z,8.71
2019-03-25T08:38:00.985Z,8.77
2019-03-25T08:40:30.442Z,8.80
2019-03-25T08:42:59.880Z,8.84
2019-03-25T08:45:29.327Z,8.84
2019-03-25T08:47:58.759Z,8.90
2019-03-25T08:50:28.182Z,8.81
2019-03-25T08:52:57.645Z,8.89
2019-03-25T08:55:27.140Z,8.87
2019-03-25T08:57:56.653Z,8.93
2019-03-25T09:00:26.084Z,8.97
2019-03-25T09:02:55.525Z,8.93
2019-03-25T09:05:24.962Z,9.07
2019-03-25T09:07:54.888Z,9.06
2019-03-25T09:10:24.463Z,9.06
2019-03-25T09:12:53.895Z,9.02
2019-03-25T09:15:23.389Z,8.97
2019-03-25T09:17:52.829Z,8.85
2019-03-25T09:20:22.261Z,8.99
2019-03-25T09:22:51.702Z,8.99
2019-03-25T09:25:21.134Z,8.91
2019-03-25T09:27:50.570Z,8.87
2019-03-25T09:30:56.846Z,8.82
2019-03-25T09:33:26.311Z,8.88
2019-03-25T09:35:55.740Z,9.01
2019-03-25T09:38:25.247Z,9.02
2019-03-25T09:40:54.686Z,9.05
2019-03-25T09:43:24.125Z,9.06
2019-03-25T09:45:53.547Z,9.15
2019-03-25T09:48:22.995Z,9.30
2019-03-25T09:50:52.433Z,9.29
2019-03-25T09:53:21.871Z,9.23
2019-03-25T09:55:51.302Z,9.19
2019-03-25T09:58:20.999Z,9.14
2019-03-25T10:00:52.153Z,9.20
2019-03-25T10:03:21.770Z,9.17
2019-03-25T10:05:51.201Z,9.12
2019-03-25T10:08:20.643Z,9.10
2019-03-25T10:10:50.307Z,9.06
2019-03-25T10:13:19.748Z,8.95
2019-03-25T10:15:49.246Z,8.96
2019-03-25T10:18:18.689Z,8.93
2019-03-25T10:20:48.117Z,8.95
2019-03-25T10:23:17.557Z,8.84
2019-03-25T10:25:46.997Z,8.83
2019-03-25T10:28:16.426Z,8.80
2019-03-25T10:30:45.880Z,8.82
2019-03-25T10:33:15.310Z,8.75
2019-03-25T10:35:44.746Z,8.84
2019-03-25T10:38:19.475Z,8.85
2019-03-25T10:40:45.351Z,8.90
2019-03-25T10:43:14.859Z,9.00
2019-03-25T10:45:44.291Z,9.11
2019-03-25T10:48:13.728Z,9.17
2019-03-25T10:50:43.830Z,9.20
2019-03-25T10:53:13.262Z,9.21
2019-03-25T10:55:42.718Z,9.27
2019-03-25T10:58:12.164Z,9.40
2019-03-25T11:00:41.600Z,9.46
2019-03-25T11:03:11.115Z,9.53
2019-03-25T11:05:40.551Z,9.64
2019-03-25T11:08:09.993Z,9.71
2019-03-25T11:10:39.432Z,9.65
2019-03-25T11:13:08.865Z,9.66
2019-03-25T11:15:38.298Z,9.69
2019-03-25T11:18:07.741Z,9.72
2019-03-25T11:20:37.199Z,9.73
2019-03-25T11:23:07.104Z,9.63
2019-03-25T11:25:36.528Z,9.78
2019-03-25T11:28:05.978Z,9.77
2019-03-25T11:30:54.309Z,9.73
2019-03-25T11:33:24.912Z,9.74
2019-03-25T11:35:54.401Z,9.83
2019-03-25T11:38:25.128Z,9.91
2019-03-25T11:40:54.562Z,9.96
2019-03-25T11:43:24.001Z,9.80
2019-03-25T11:45:53.700Z,9.62
2019-03-25T11:48:23.145Z,9.49
2019-03-25T11:50:52.586Z,9.22
2019-03-25T11:53:22.090Z,8.92
2019-03-25T11:55:51.531Z,8.79
2019-03-25T11:58:20.969Z,8.83
2019-03-25T12:00:50.977Z,8.84
2019-03-25T12:03:20.433Z,9.08
2019-03-25T12:05:49.863Z,9.18
2019-03-25T12:08:19.374Z,9.25
2019-03-25T12:10:48.812Z,9.13
2019-03-25T12:13:18.328Z,9.11
2019-03-25T12:15:48.037Z,9.21
2019-03-25T12:18:17.494Z,9.25
2019-03-25T12:20:46.924Z,9.27
2019-03-25T12:23:25.775Z,9.24
2019-03-25T12:25:47.524Z,9.24
2019-03-25T12:28:16.971Z,9.28
2019-03-25T12:30:46.404Z,9.43
2019-03-25T12:33:15.850Z,9.42
2019-03-25T12:35:45.285Z,9.60
2019-03-25T12:38:14.881Z,9.68
2019-03-25T12:40:44.410Z,9.67
2019-03-25T12:43:13.858Z,9.65
2019-03-25T12:45:43.364Z,9.46
2019-03-25T12:48:12.814Z,9.32
2019-03-25T12:50:42.250Z,9.31
2019-03-25T12:53:11.697Z,9.36
2019-03-25T12:55:41.186Z,9.35
2019-03-25T12:58:10.627Z,9.41
2019-03-25T13:00:42.477Z,9.47
2019-03-25T13:03:11.916Z,9.58
2019-03-25T13:05:41.491Z,9.59
2019-03-25T13:08:10.937Z,9.62
2019-03-25T13:10:40.362Z,9.58
2019-03-25T13:13:09.942Z,9.44
2019-03-25T13:15:39.399Z,9.24
2019-03-25T13:18:08.845Z,8.91
2019-03-25T13:20:38.280Z,8.75
2019-03-25T13:23:07.785Z,8.59
2019-03-25T13:25:39.372Z,8.48
2019-03-25T13:28:08.409Z,8.36
2019-03-25T13:30:37.857Z,8.11
2019-03-25T13:33:07.291Z,8.27
2019-03-25T13:35:36.737Z,8.23
2019-03-25T13:38:06.162Z,8.31
2019-03-25T13:40:35.671Z,8.47
2019-03-25T13:43:05.101Z,8.43
2019-03-25T13:45:34.541Z,8.54
2019-03-25T13:48:03.986Z,8.69
2019-03-25T13:50:33.429Z,8.83
2019-03-25T13:53:02.875Z,8.92
2019-03-25T13:55:32.301Z,9.12
2019-03-25T13:58:02.106Z,9.31
2019-03-25T14:01:27.666Z,9.54
2019-03-25T14:03:57.096Z,9.69
2019-03-25T14:06:26.538Z,9.85
2019-03-25T14:08:55.976Z,9.94
2019-03-25T14:11:25.497Z,9.89
2019-03-25T14:13:54.924Z,9.93
2019-03-25T14:16:24.371Z,9.88
2019-03-25T14:18:53.817Z,9.88
2019-03-25T14:21:23.319Z,9.82
2019-03-25T14:23:52.752Z,9.77
2019-03-25T14:26:22.187Z,9.72
2019-03-25T14:28:51.628Z,9.63
2019-03-25T14:31:21.058Z,9.28
2019-03-25T14:33:50.506Z,8.73
2019-03-25T14:36:20.200Z,8.39
2019-03-25T14:38:49.650Z,8.00
2019-03-25T14:41:19.073Z,7.75
2019-03-25T14:43:48.511Z,7.59
2019-03-25T14:46:17.950Z,7.53
2019-03-25T14:48:47.383Z,7.38
2019-03-25T14:51:16.809Z,7.39
2019-03-25T14:53:46.256Z,7.53
2019-03-25T14:56:16.051Z,7.67
2019-03-25T14:58:45.511Z,7.75
2019-03-25T15:01:14.952Z,7.74
2019-03-25T15:03:44.457Z,7.80
2019-03-25T15:06:13.886Z,7.89
2019-03-25T15:08:43.334Z,8.02
2019-03-25T15:11:12.763Z,8.11
2019-03-25T15:13:42.204Z,8.25
2019-03-25T15:16:11.652Z,8.34
2019-03-25T15:18:41.086Z,8.46
2019-03-25T15:21:10.519Z,8.62
2019-03-25T15:23:40.213Z,8.64
2019-03-25T15:26:09.723Z,8.78
2019-03-25T15:28:39.173Z,8.70
2019-03-25T15:31:08.678Z,8.81
2019-03-25T15:33:38.115Z,8.91
2019-03-25T15:36:07.545Z,9.08
2019-03-25T15:38:36.997Z,9.21
2019-03-25T15:41:06.862Z,9.41
2019-03-25T15:43:36.323Z,9.43
2019-03-25T15:46:05.754Z,9.55
2019-03-25T15:48:35.195Z,9.72
2019-03-25T15:51:04.638Z,11.33
2019-03-25T15:53:34.104Z,14.14
2019-03-25T15:56:03.552Z,13.07
2019-03-25T15:58:33.003Z,12.01
2019-03-25T16:01:02.456Z,11.23
2019-03-25T16:03:31.915Z,10.64
2019-03-25T16:06:01.364Z,10.13
2019-03-25T16:08:31.132Z,11.04
2019-03-25T16:11:00.571Z,13.22
2019-03-25T16:13:30.061Z,11.71
2019-03-25T16:15:59.487Z,10.85
2019-03-25T16:18:35.034Z,10.28
2019-03-25T16:21:04.657Z,9.91
2019-03-25T16:23:34.112Z,9.78
2019-03-25T16:26:03.631Z,12.19
2019-03-25T16:28:33.446Z,10.93
2019-03-25T16:31:03.696Z,12.02
2019-03-25T16:33:33.140Z,10.61
2019-03-25T16:36:02.565Z,9.53
2019-03-25T16:38:32.191Z,10.91
2019-03-25T16:41:01.629Z,12.25
2019-03-25T16:43:31.184Z,12.15
2019-03-25T16:46:00.622Z,11.41
2019-03-25T16:48:30.066Z,9.62
2019-03-25T16:50:59.507Z,8.96
2019-03-25T16:53:28.943Z,8.40
2019-03-25T16:55:58.369Z,8.01
2019-03-25T16:58:27.809Z,7.70
2019-03-25T17:00:57.230Z,7.34
2019-03-25T17:03:47.682Z,6.98
2019-03-25T17:06:17.932Z,6.88
2019-03-25T17:08:47.370Z,6.95
2019-03-25T17:11:16.794Z,6.91
2019-03-25T17:13:46.246Z,6.88
2019-03-25T17:16:15.969Z,6.84
2019-03-25T17:18:45.405Z,6.88
2019-03-25T17:21:14.830Z,6.84
2019-03-25T17:23:44.275Z,6.82
2019-03-25T17:26:13.694Z,6.81
2019-03-25T17:28:43.144Z,6.72
2019-03-25T17:31:20.619Z,6.71
2019-03-25T17:33:43.722Z,6.55
2019-03-25T17:36:13.147Z,6.33
2019-03-25T17:38:42.595Z,6.27
2019-03-25T17:41:12.028Z,6.20
2019-03-25T17:43:41.468Z,6.19
2019-03-25T17:46:10.895Z,6.27
2019-03-25T17:48:40.336Z,6.40
2019-03-25T17:51:10.085Z,6.38
2019-03-25T17:53:39.528Z,6.23
2019-03-25T17:56:08.947Z,6.05
2019-03-25T17:58:38.392Z,6.02
2019-03-25T18:01:09.693Z,5.77
2019-03-25T18:03:39.122Z,5.60
2019-03-25T18:06:08.550Z,5.61
2019-03-25T18:08:38.008Z,5.66
2019-03-25T18:11:07.422Z,5.66
2019-03-25T18:13:36.850Z,5.60
2019-03-25T18:16:06.310Z,5.60
2019-03-25T18:18:35.719Z,5.56
2019-03-25T18:21:05.155Z,5.59
2019-03-25T18:23:34.603Z,5.56
2019-03-25T18:26:04.166Z,5.55
2019-03-25T18:28:33.586Z,5.49
2019-03-25T18:31:03.298Z,5.44
2019-03-25T18:33:32.716Z,5.52
2019-03-25T18:36:02.150Z,5.50
2019-03-25T18:38:31.577Z,5.44
2019-03-25T18:41:01.014Z,5.40
2019-03-25T18:43:30.431Z,5.43
2019-03-25T18:45:59.877Z,5.32
2019-03-25T18:48:29.558Z,5.30
2019-03-25T18:50:58.985Z,5.37
2019-03-25T18:53:28.676Z,5.46
2019-03-25T18:55:58.181Z,5.53
2019-03-25T18:58:27.603Z,5.46
2019-03-25T19:00:57.045Z,5.25
2019-03-25T19:03:26.469Z,5.26
2019-03-25T19:05:55.919Z,5.36
2019-03-25T19:08:25.347Z,5.38
2019-03-25T19:10:54.772Z,5.36
2019-03-25T19:13:24.205Z,5.27
2019-03-25T19:15:53.718Z,5.20
2019-03-25T19:18:23.160Z,5.20
2019-03-25T19:20:52.595Z,5.27
2019-03-25T19:23:22.017Z,5.31
2019-03-25T19:25:51.451Z,5.39
2019-03-25T19:28:20.882Z,5.50
2019-03-25T19:30:50.655Z,5.41
2019-03-25T19:33:20.096Z,5.34
2019-03-25T19:35:49.555Z,5.29
2019-03-25T19:38:18.959Z,5.19
2019-03-25T19:40:48.424Z,5.17
2019-03-25T19:43:17.825Z,5.20
2019-03-25T19:45:47.257Z,5.28
2019-03-25T19:48:16.714Z,5.24
2019-03-25T19:50:46.109Z,5.18
2019-03-25T19:53:19.453Z,5.22
2019-03-25T19:55:46.692Z,5.24
2019-03-25T19:58:16.130Z,5.21
2019-03-25T20:00:45.600Z,5.26
2019-03-25T20:03:14.997Z,5.26
2019-03-25T20:05:44.438Z,5.11
2019-03-25T20:08:13.868Z,5.13
2019-03-25T20:10:43.299Z,5.18
2019-03-25T20:13:12.737Z,5.23
2019-03-25T20:15:46.560Z,5.30
2019-03-25T20:18:13.366Z,5.30
2019-03-25T20:20:42.741Z,5.39
2019-03-25T20:23:12.221Z,5.49
2019-03-25T20:25:41.608Z,5.44
2019-03-25T20:28:11.051Z,5.50
2019-03-25T20:30:40.773Z,5.61
2019-03-25T20:33:10.208Z,5.77
2019-03-25T20:35:39.740Z,5.87
2019-03-25T20:38:09.153Z,5.91
2019-03-25T20:40:38.583Z,6.01
2019-03-25T20:43:08.025Z,5.99
2019-03-25T20:45:37.451Z,5.98
2019-03-25T20:48:06.885Z,5.97
2019-03-25T20:50:36.350Z,6.00
2019-03-25T20:53:05.818Z,6.00
2019-03-25T20:55:35.679Z,6.03
2019-03-25T20:58:05.151Z,5.99
2019-03-25T21:00:55.555Z,5.98
2019-03-25T21:03:25.356Z,6.03
2019-03-25T21:05:54.796Z,6.07
2019-03-25T21:08:24.212Z,6.06
2019-03-25T21:10:53.663Z,6.08
2019-03-25T21:13:23.137Z,6.03
2019-03-25T21:15:52.667Z,6.03
2019-03-25T21:18:22.137Z,6.06
2019-03-25T21:20:51.549Z,6.05
2019-03-25T21:23:20.967Z,6.02
2019-03-25T21:25:50.396Z,6.02
2019-03-25T21:28:19.830Z,6.00
2019-03-25T21:30:49.268Z,5.98
2019-03-25T21:33:18.711Z,6.00
2019-03-25T21:35:48.221Z,5.97
2019-03-25T21:38:17.675Z,6.09
2019-03-25T21:40:47.158Z,6.06
2019-03-25T21:43:16.678Z,5.98
2019-03-25T21:45:46.124Z,5.94
2019-03-25T21:48:15.583Z,5.91
2019-03-25T21:50:45.037Z,5.91
2019-03-25T21:53:14.455Z,5.97
2019-03-25T21:55:44.024Z,5.95
2019-03-25T21:58:13.750Z,5.93
2019-03-25T22:00:43.216Z,5.96
2019-03-25T22:03:12.887Z,5.90
2019-03-25T22:05:42.322Z,5.86
2019-03-25T22:08:11.759Z,5.84
2019-03-25T22:10:43.030Z,5.89
2019-03-25T22:13:12.353Z,5.87
2019-03-25T22:15:41.776Z,5.84
2019-03-25T22:18:11.786Z,5.84
2019-03-25T22:20:41.222Z,5.80
2019-03-25T22:23:10.994Z,5.82
2019-03-25T22:25:40.417Z,5.78
2019-03-25T22:28:09.861Z,5.79
2019-03-25T22:30:39.298Z,5.77
2019-03-25T22:33:08.733Z,5.83
2019-03-25T22:35:38.157Z,5.86
2019-03-25T22:38:07.659Z,5.86
2019-03-25T22:40:37.102Z,5.80
2019-03-25T22:43:06.548Z,5.81
2019-03-25T22:45:35.982Z,5.81
2019-03-25T22:48:07.339Z,5.75
2019-03-25T22:50:37.160Z,5.72
2019-03-25T22:53:06.602Z,5.76
2019-03-25T22:55:36.303Z,5.79
2019-03-25T22:58:05.734Z,5.72
2019-03-25T23:00:42.643Z,5.71
2019-03-25T23:03:12.088Z,5.66
2019-03-25T23:05:41.505Z,5.69
2019-03-25T23:08:10.938Z,5.63
2019-03-25T23:10:40.362Z,5.65
2019-03-25T23:13:09.795Z,5.71
2019-03-25T23:15:39.230Z,5.77
2019-03-25T23:18:08.657Z,5.71
2019-03-25T23:20:38.098Z,5.66
2019-03-25T23:23:07.523Z,5.64
2019-03-25T23:25:36.966Z,5.60
2019-03-25T23:28:06.401Z,5.64
2019-03-25T23:30:35.850Z,5.64
2019-03-25T23:33:05.284Z,5.71
2019-03-25T23:35:34.795Z,5.62
2019-03-25T23:38:04.227Z,5.66
2019-03-25T23:40:33.674Z,5.68
2019-03-25T23:43:03.100Z,5.68
2019-03-25T23:45:32.534Z,5.68
2019-03-25T23:48:02.002Z,5.62
2019-03-25T23:50:31.452Z,5.63
2019-03-25T23:53:00.876Z,5.61
2019-03-25T23:55:30.332Z,5.63
2019-03-25T23:57:59.764Z,5.71
